Chronik & Geschichte

Boeing Stearman am Flugplatz Konstanz

Mit seiner 107-jährigen Geschichte ist Konstanz der älteste Verkehrslandeplatz Deutschlands. Lesen Sie unsere Festschrift zum 100-jährigen Platzjubiläum oder entdecken Sie die ausführliche Flugplatzchronik auf der Website der Initiative PRO Flugplatz Konstanz.

Live am Platz

Die Bilder unserer Webcams werden alle 5 Minuten aktualisiert.

Sonnenaufgang:

04:14 UTC / 06:14 Lokal

Sonnenuntergang:

18:42 UTC / 20:42 Lokal

METAR (12.08.2020 12:20 UTC):

EDNY 121220Z VRB02KT 9999 FEW048 31/18 Q1016
VFR

TAF (12.08.2020 11:00 UTC):

TAF EDNY 121100Z 1212/1312 VRB03KT CAVOK TEMPO 1212/1216 23005KT BECMG 1306/1308 24007KT PROB30 TEMPO 1306/1310 25015G30KT TSRA FEW030 SCT050CB PROB30 TEMPO 1310/1312 03005KT

Alle Angaben unverbindlich und ohne Gewähr. Zeiten genähert.

Für den Verkehrslandeplatz Konstanz werden keine offiziellen Wetterinformationen ausgegeben. Daher werden zur Orientierung Daten des nahegelegenen Flughafens Friedrichshafen dargestellt.